sensor_id;sensor_type;location;lat;lon;timestamp;P1;durP1;ratioP1;P2;durP2;ratioP2
25509;SDS011;13413;52.336;21.200;2022-12-26T00:01:06;89.70;;;43.70;;
25509;SDS011;13413;52.336;21.200;2022-12-26T00:04:02;91.70;;;45.20;;
25509;SDS011;13413;52.336;21.200;2022-12-26T00:06:56;92.60;;;43.50;;
25509;SDS011;13413;52.336;21.200;2022-12-26T00:09:51;88.70;;;42.50;;
25509;SDS011;13413;52.336;21.200;2022-12-26T00:12:45;92.40;;;43.70;;
25509;SDS011;13413;52.336;21.200;2022-12-26T00:15:40;82.60;;;42.80;;
25509;SDS011;13413;52.336;21.200;2022-12-26T00:18:35;63.80;;;30.60;;
25509;SDS011;13413;52.336;21.200;2022-12-26T00:21:30;93.80;;;43.60;;
25509;SDS011;13413;52.336;21.200;2022-12-26T00:24:24;82.10;;;41.70;;
25509;SDS011;13413;52.336;21.200;2022-12-26T00:27:18;78.50;;;37.60;;
25509;SDS011;13413;52.336;21.200;2022-12-26T00:30:13;85.00;;;41.30;;
25509;SDS011;13413;52.336;21.200;2022-12-26T00:33:07;86.10;;;42.40;;
25509;SDS011;13413;52.336;21.200;2022-12-26T00:36:02;85.20;;;42.20;;
25509;SDS011;13413;52.336;21.200;2022-12-26T00:38:59;90.40;;;40.70;;
25509;SDS011;13413;52.336;21.200;2022-12-26T00:41:54;87.40;;;40.10;;
25509;SDS011;13413;52.336;21.200;2022-12-26T00:44:48;89.40;;;41.40;;
25509;SDS011;13413;52.336;21.200;2022-12-26T00:47:42;85.50;;;39.90;;
25509;SDS011;13413;52.336;21.200;2022-12-26T00:50:36;85.10;;;41.80;;
25509;SDS011;13413;52.336;21.200;2022-12-26T00:53:30;90.10;;;43.10;;
25509;SDS011;13413;52.336;21.200;2022-12-26T00:56:44;85.70;;;44.20;;
25509;SDS011;13413;52.336;21.200;2022-12-26T00:59:38;86.50;;;42.40;;
25509;SDS011;13413;52.336;21.200;2022-12-26T01:02:32;87.90;;;41.40;;
25509;SDS011;13413;52.336;21.200;2022-12-26T01:05:26;84.30;;;43.00;;
25509;SDS011;13413;52.336;21.200;2022-12-26T01:08:20;90.50;;;42.40;;
25509;SDS011;13413;52.336;21.200;2022-12-26T01:11:15;86.50;;;44.90;;
25509;SDS011;13413;52.336;21.200;2022-12-26T01:14:10;91.00;;;44.40;;
25509;SDS011;13413;52.336;21.200;2022-12-26T01:17:06;88.70;;;45.50;;
25509;SDS011;13413;52.336;21.200;2022-12-26T01:19:59;88.80;;;46.10;;
25509;SDS011;13413;52.336;21.200;2022-12-26T01:22:55;94.10;;;46.20;;
25509;SDS011;13413;52.336;21.200;2022-12-26T01:25:49;79.90;;;41.20;;
25509;SDS011;13413;52.336;21.200;2022-12-26T01:28:43;86.20;;;45.70;;
25509;SDS011;13413;52.336;21.200;2022-12-26T01:31:37;84.20;;;45.80;;
25509;SDS011;13413;52.336;21.200;2022-12-26T01:34:45;91.80;;;46.70;;
25509;SDS011;13413;52.336;21.200;2022-12-26T01:37:41;85.70;;;42.80;;
25509;SDS011;13413;52.336;21.200;2022-12-26T01:40:34;85.00;;;44.50;;
25509;SDS011;13413;52.336;21.200;2022-12-26T01:43:45;88.60;;;45.90;;
25509;SDS011;13413;52.336;21.200;2022-12-26T01:46:43;86.00;;;45.10;;
25509;SDS011;13413;52.336;21.200;2022-12-26T01:55:09;98.90;;;48.00;;
25509;SDS011;13413;52.336;21.200;2022-12-26T01:58:08;84.90;;;46.80;;
25509;SDS011;13413;52.336;21.200;2022-12-26T02:01:06;88.50;;;47.00;;
25509;SDS011;13413;52.336;21.200;2022-12-26T02:04:01;87.60;;;47.10;;
25509;SDS011;13413;52.336;21.200;2022-12-26T02:09:49;83.30;;;45.60;;
25509;SDS011;13413;52.336;21.200;2022-12-26T02:12:44;80.00;;;45.80;;
25509;SDS011;13413;52.336;21.200;2022-12-26T02:15:41;88.80;;;46.40;;
25509;SDS011;13413;52.336;21.200;2022-12-26T02:18:35;85.00;;;45.80;;
25509;SDS011;13413;52.336;21.200;2022-12-26T02:21:44;86.20;;;48.20;;
25509;SDS011;13413;52.336;21.200;2022-12-26T02:25:06;81.10;;;45.60;;
25509;SDS011;13413;52.336;21.200;2022-12-26T02:31:40;79.40;;;43.80;;
25509;SDS011;13413;52.336;21.200;2022-12-26T02:34:42;77.90;;;42.40;;
25509;SDS011;13413;52.336;21.200;2022-12-26T02:37:51;76.40;;;42.00;;
25509;SDS011;13413;52.336;21.200;2022-12-26T02:40:58;67.20;;;36.10;;
25509;SDS011;13413;52.336;21.200;2022-12-26T02:44:11;73.20;;;40.80;;
25509;SDS011;13413;52.336;21.200;2022-12-26T02:47:13;76.70;;;41.30;;
25509;SDS011;13413;52.336;21.200;2022-12-26T02:50:17;70.90;;;37.80;;
25509;SDS011;13413;52.336;21.200;2022-12-26T02:53:16;70.10;;;38.80;;
25509;SDS011;13413;52.336;21.200;2022-12-26T02:56:20;48.20;;;25.60;;
25509;SDS011;13413;52.336;21.200;2022-12-26T02:59:20;55.90;;;35.10;;
25509;SDS011;13413;52.336;21.200;2022-12-26T03:02:21;61.40;;;36.00;;
25509;SDS011;13413;52.336;21.200;2022-12-26T03:05:23;61.50;;;36.80;;
25509;SDS011;13413;52.336;21.200;2022-12-26T03:08:23;60.30;;;36.30;;
25509;SDS011;13413;52.336;21.200;2022-12-26T03:11:21;55.00;;;29.20;;
25509;SDS011;13413;52.336;21.200;2022-12-26T03:14:19;53.90;;;32.40;;
25509;SDS011;13413;52.336;21.200;2022-12-26T03:17:17;59.90;;;36.40;;
25509;SDS011;13413;52.336;21.200;2022-12-26T03:20:19;60.00;;;35.40;;
25509;SDS011;13413;52.336;21.200;2022-12-26T03:23:17;64.40;;;34.90;;
25509;SDS011;13413;52.336;21.200;2022-12-26T03:26:14;58.70;;;32.10;;
25509;SDS011;13413;52.336;21.200;2022-12-26T03:29:12;62.00;;;35.40;;
25509;SDS011;13413;52.336;21.200;2022-12-26T03:32:08;58.70;;;34.20;;
25509;SDS011;13413;52.336;21.200;2022-12-26T03:35:07;56.70;;;32.80;;
25509;SDS011;13413;52.336;21.200;2022-12-26T03:38:05;63.90;;;34.40;;
25509;SDS011;13413;52.336;21.200;2022-12-26T03:41:06;58.70;;;34.00;;
25509;SDS011;13413;52.336;21.200;2022-12-26T03:44:11;59.20;;;33.20;;
25509;SDS011;13413;52.336;21.200;2022-12-26T03:47:16;57.70;;;34.30;;
25509;SDS011;13413;52.336;21.200;2022-12-26T03:50:17;61.60;;;33.60;;
25509;SDS011;13413;52.336;21.200;2022-12-26T03:53:21;61.30;;;34.00;;
25509;SDS011;13413;52.336;21.200;2022-12-26T03:56:20;57.10;;;33.70;;
25509;SDS011;13413;52.336;21.200;2022-12-26T03:59:18;60.60;;;33.80;;
25509;SDS011;13413;52.336;21.200;2022-12-26T04:02:18;53.00;;;31.20;;
25509;SDS011;13413;52.336;21.200;2022-12-26T04:05:14;63.10;;;34.30;;
25509;SDS011;13413;52.336;21.200;2022-12-26T04:15:41;63.50;;;34.40;;
25509;SDS011;13413;52.336;21.200;2022-12-26T04:18:39;58.80;;;33.60;;
25509;SDS011;13413;52.336;21.200;2022-12-26T04:21:38;54.60;;;32.40;;
25509;SDS011;13413;52.336;21.200;2022-12-26T04:24:39;61.50;;;34.00;;
25509;SDS011;13413;52.336;21.200;2022-12-26T04:27:40;59.00;;;34.00;;
25509;SDS011;13413;52.336;21.200;2022-12-26T04:30:35;69.80;;;37.00;;
25509;SDS011;13413;52.336;21.200;2022-12-26T04:33:34;55.70;;;34.60;;
25509;SDS011;13413;52.336;21.200;2022-12-26T04:36:36;54.30;;;29.80;;
25509;SDS011;13413;52.336;21.200;2022-12-26T04:39:34;60.00;;;35.40;;
25509;SDS011;13413;52.336;21.200;2022-12-26T04:42:31;58.20;;;34.70;;
25509;SDS011;13413;52.336;21.200;2022-12-26T04:45:26;59.00;;;35.80;;
25509;SDS011;13413;52.336;21.200;2022-12-26T04:51:15;58.10;;;34.70;;
25509;SDS011;13413;52.336;21.200;2022-12-26T04:54:09;59.60;;;36.00;;
25509;SDS011;13413;52.336;21.200;2022-12-26T04:57:03;60.60;;;36.60;;
25509;SDS011;13413;52.336;21.200;2022-12-26T05:02:50;59.60;;;34.80;;
25509;SDS011;13413;52.336;21.200;2022-12-26T05:05:45;43.80;;;27.50;;
25509;SDS011;13413;52.336;21.200;2022-12-26T05:08:41;62.00;;;36.40;;
25509;SDS011;13413;52.336;21.200;2022-12-26T05:11:37;55.70;;;35.10;;
25509;SDS011;13413;52.336;21.200;2022-12-26T05:14:31;44.20;;;24.90;;
25509;SDS011;13413;52.336;21.200;2022-12-26T05:17:26;52.80;;;32.50;;
25509;SDS011;13413;52.336;21.200;2022-12-26T05:20:20;56.80;;;36.40;;
25509;SDS011;13413;52.336;21.200;2022-12-26T05:23:17;59.10;;;36.40;;
25509;SDS011;13413;52.336;21.200;2022-12-26T05:26:15;58.20;;;34.90;;
25509;SDS011;13413;52.336;21.200;2022-12-26T05:29:12;52.70;;;34.70;;
25509;SDS011;13413;52.336;21.200;2022-12-26T05:32:06;57.10;;;32.80;;
25509;SDS011;13413;52.336;21.200;2022-12-26T05:35:00;56.50;;;32.80;;
25509;SDS011;13413;52.336;21.200;2022-12-26T05:37:54;54.10;;;35.60;;
25509;SDS011;13413;52.336;21.200;2022-12-26T05:40:49;52.70;;;33.70;;
25509;SDS011;13413;52.336;21.200;2022-12-26T05:43:43;58.60;;;33.90;;
25509;SDS011;13413;52.336;21.200;2022-12-26T05:46:37;55.50;;;33.90;;
25509;SDS011;13413;52.336;21.200;2022-12-26T05:49:32;49.50;;;33.40;;
25509;SDS011;13413;52.336;21.200;2022-12-26T05:52:26;59.00;;;37.10;;
25509;SDS011;13413;52.336;21.200;2022-12-26T05:55:20;53.70;;;33.80;;
25509;SDS011;13413;52.336;21.200;2022-12-26T05:58:14;54.10;;;35.10;;
25509;SDS011;13413;52.336;21.200;2022-12-26T06:01:09;48.60;;;30.80;;
25509;SDS011;13413;52.336;21.200;2022-12-26T06:04:05;50.60;;;32.90;;
25509;SDS011;13413;52.336;21.200;2022-12-26T06:06:59;57.10;;;35.70;;
25509;SDS011;13413;52.336;21.200;2022-12-26T06:09:53;51.60;;;33.90;;
25509;SDS011;13413;52.336;21.200;2022-12-26T06:12:47;52.50;;;33.50;;
25509;SDS011;13413;52.336;21.200;2022-12-26T06:15:41;50.90;;;31.90;;
25509;SDS011;13413;52.336;21.200;2022-12-26T06:18:35;45.00;;;29.20;;
25509;SDS011;13413;52.336;21.200;2022-12-26T06:24:22;43.60;;;29.60;;
25509;SDS011;13413;52.336;21.200;2022-12-26T06:27:16;41.50;;;29.30;;
25509;SDS011;13413;52.336;21.200;2022-12-26T06:35:35;38.60;;;26.80;;
25509;SDS011;13413;52.336;21.200;2022-12-26T06:38:29;26.80;;;17.30;;
25509;SDS011;13413;52.336;21.200;2022-12-26T06:41:24;35.20;;;21.80;;
25509;SDS011;13413;52.336;21.200;2022-12-26T06:44:18;37.20;;;24.20;;
25509;SDS011;13413;52.336;21.200;2022-12-26T06:47:12;34.80;;;24.70;;
25509;SDS011;13413;52.336;21.200;2022-12-26T06:50:06;24.80;;;13.90;;
25509;SDS011;13413;52.336;21.200;2022-12-26T06:55:53;29.60;;;16.70;;
25509;SDS011;13413;52.336;21.200;2022-12-26T06:58:56;29.70;;;19.00;;
25509;SDS011;13413;52.336;21.200;2022-12-26T07:01:51;19.80;;;14.40;;
25509;SDS011;13413;52.336;21.200;2022-12-26T07:04:45;27.70;;;16.40;;
25509;SDS011;13413;52.336;21.200;2022-12-26T07:07:39;29.30;;;20.30;;
25509;SDS011;13413;52.336;21.200;2022-12-26T07:10:34;26.60;;;20.00;;
25509;SDS011;13413;52.336;21.200;2022-12-26T07:13:50;33.20;;;22.10;;
25509;SDS011;13413;52.336;21.200;2022-12-26T07:16:44;24.20;;;14.90;;
25509;SDS011;13413;52.336;21.200;2022-12-26T07:22:45;32.50;;;22.40;;
25509;SDS011;13413;52.336;21.200;2022-12-26T07:25:40;30.50;;;22.70;;
25509;SDS011;13413;52.336;21.200;2022-12-26T07:28:33;33.90;;;23.60;;
25509;SDS011;13413;52.336;21.200;2022-12-26T07:31:27;32.30;;;21.40;;
25509;SDS011;13413;52.336;21.200;2022-12-26T07:34:21;31.50;;;22.50;;
25509;SDS011;13413;52.336;21.200;2022-12-26T07:37:15;33.40;;;23.30;;
25509;SDS011;13413;52.336;21.200;2022-12-26T07:40:11;32.30;;;23.10;;
25509;SDS011;13413;52.336;21.200;2022-12-26T07:43:04;25.60;;;17.80;;
25509;SDS011;13413;52.336;21.200;2022-12-26T07:45:58;28.20;;;15.40;;
25509;SDS011;13413;52.336;21.200;2022-12-26T07:48:52;29.30;;;19.30;;
25509;SDS011;13413;52.336;21.200;2022-12-26T07:51:46;32.10;;;23.90;;
25509;SDS011;13413;52.336;21.200;2022-12-26T07:54:40;33.60;;;22.90;;
25509;SDS011;13413;52.336;21.200;2022-12-26T07:57:35;31.60;;;22.80;;
25509;SDS011;13413;52.336;21.200;2022-12-26T08:00:28;31.50;;;22.70;;
25509;SDS011;13413;52.336;21.200;2022-12-26T08:03:22;28.40;;;19.10;;
25509;SDS011;13413;52.336;21.200;2022-12-26T08:06:17;52.40;;;34.20;;
25509;SDS011;13413;52.336;21.200;2022-12-26T08:09:12;38.70;;;25.10;;
25509;SDS011;13413;52.336;21.200;2022-12-26T08:12:07;28.50;;;19.90;;
25509;SDS011;13413;52.336;21.200;2022-12-26T08:15:01;30.80;;;20.80;;
25509;SDS011;13413;52.336;21.200;2022-12-26T08:17:56;35.80;;;21.20;;
25509;SDS011;13413;52.336;21.200;2022-12-26T08:23:44;34.90;;;20.90;;
25509;SDS011;13413;52.336;21.200;2022-12-26T08:26:38;35.60;;;23.30;;
25509;SDS011;13413;52.336;21.200;2022-12-26T08:29:32;49.30;;;32.70;;
25509;SDS011;13413;52.336;21.200;2022-12-26T08:32:26;32.60;;;21.10;;
25509;SDS011;13413;52.336;21.200;2022-12-26T08:35:20;39.90;;;22.90;;
25509;SDS011;13413;52.336;21.200;2022-12-26T08:38:14;41.20;;;24.00;;
25509;SDS011;13413;52.336;21.200;2022-12-26T08:41:08;35.70;;;23.10;;
25509;SDS011;13413;52.336;21.200;2022-12-26T08:44:01;33.50;;;21.60;;
25509;SDS011;13413;52.336;21.200;2022-12-26T08:55:40;35.40;;;20.40;;
25509;SDS011;13413;52.336;21.200;2022-12-26T08:58:35;31.90;;;19.60;;
25509;SDS011;13413;52.336;21.200;2022-12-26T09:01:29;38.40;;;22.40;;
25509;SDS011;13413;52.336;21.200;2022-12-26T09:07:16;30.60;;;19.80;;
25509;SDS011;13413;52.336;21.200;2022-12-26T09:10:10;29.40;;;20.10;;
25509;SDS011;13413;52.336;21.200;2022-12-26T09:13:04;36.40;;;23.90;;
25509;SDS011;13413;52.336;21.200;2022-12-26T09:16:03;31.70;;;18.00;;
25509;SDS011;13413;52.336;21.200;2022-12-26T09:19:00;33.60;;;20.90;;
25509;SDS011;13413;52.336;21.200;2022-12-26T09:21:55;47.30;;;26.10;;
25509;SDS011;13413;52.336;21.200;2022-12-26T09:24:50;37.40;;;24.90;;
25509;SDS011;13413;52.336;21.200;2022-12-26T09:27:44;37.20;;;22.20;;
25509;SDS011;13413;52.336;21.200;2022-12-26T09:33:31;36.70;;;23.30;;
25509;SDS011;13413;52.336;21.200;2022-12-26T09:36:27;46.80;;;25.90;;
25509;SDS011;13413;52.336;21.200;2022-12-26T09:39:22;33.50;;;23.70;;
25509;SDS011;13413;52.336;21.200;2022-12-26T09:42:19;37.50;;;23.20;;
25509;SDS011;13413;52.336;21.200;2022-12-26T09:45:25;36.50;;;25.60;;
25509;SDS011;13413;52.336;21.200;2022-12-26T09:48:30;44.00;;;27.10;;
25509;SDS011;13413;52.336;21.200;2022-12-26T09:51:30;39.70;;;25.60;;
25509;SDS011;13413;52.336;21.200;2022-12-26T09:54:29;40.00;;;26.60;;
25509;SDS011;13413;52.336;21.200;2022-12-26T09:57:28;40.20;;;26.20;;
25509;SDS011;13413;52.336;21.200;2022-12-26T10:00:32;41.20;;;25.70;;
25509;SDS011;13413;52.336;21.200;2022-12-26T10:03:36;40.30;;;25.50;;
25509;SDS011;13413;52.336;21.200;2022-12-26T10:06:33;39.70;;;26.60;;
25509;SDS011;13413;52.336;21.200;2022-12-26T10:09:43;40.10;;;26.30;;
25509;SDS011;13413;52.336;21.200;2022-12-26T10:12:49;39.20;;;24.10;;
25509;SDS011;13413;52.336;21.200;2022-12-26T10:15:49;41.30;;;26.60;;
25509;SDS011;13413;52.336;21.200;2022-12-26T10:18:51;40.30;;;24.30;;
25509;SDS011;13413;52.336;21.200;2022-12-26T10:21:51;45.80;;;26.10;;
25509;SDS011;13413;52.336;21.200;2022-12-26T10:24:54;44.00;;;29.10;;
25509;SDS011;13413;52.336;21.200;2022-12-26T10:27:52;45.70;;;28.00;;
25509;SDS011;13413;52.336;21.200;2022-12-26T10:30:46;49.70;;;28.80;;
25509;SDS011;13413;52.336;21.200;2022-12-26T10:33:43;45.00;;;28.90;;
25509;SDS011;13413;52.336;21.200;2022-12-26T10:36:41;47.60;;;29.80;;
25509;SDS011;13413;52.336;21.200;2022-12-26T10:39:42;50.50;;;30.30;;
25509;SDS011;13413;52.336;21.200;2022-12-26T10:42:40;48.90;;;31.10;;
25509;SDS011;13413;52.336;21.200;2022-12-26T10:45:37;41.40;;;29.60;;
25509;SDS011;13413;52.336;21.200;2022-12-26T10:48:34;46.90;;;27.90;;
25509;SDS011;13413;52.336;21.200;2022-12-26T10:51:28;44.90;;;28.60;;
25509;SDS011;13413;52.336;21.200;2022-12-26T10:54:22;44.90;;;28.80;;
25509;SDS011;13413;52.336;21.200;2022-12-26T10:57:18;49.90;;;31.70;;
25509;SDS011;13413;52.336;21.200;2022-12-26T11:00:15;52.20;;;30.10;;
25509;SDS011;13413;52.336;21.200;2022-12-26T11:03:13;52.90;;;31.80;;
25509;SDS011;13413;52.336;21.200;2022-12-26T11:06:29;50.70;;;32.40;;
25509;SDS011;13413;52.336;21.200;2022-12-26T11:15:05;55.60;;;36.40;;
25509;SDS011;13413;52.336;21.200;2022-12-26T11:18:14;56.90;;;37.70;;
25509;SDS011;13413;52.336;21.200;2022-12-26T11:21:12;67.10;;;40.50;;
25509;SDS011;13413;52.336;21.200;2022-12-26T11:24:15;51.70;;;36.20;;
25509;SDS011;13413;52.336;21.200;2022-12-26T11:27:17;76.20;;;43.80;;
25509;SDS011;13413;52.336;21.200;2022-12-26T11:33:31;65.30;;;36.60;;
25509;SDS011;13413;52.336;21.200;2022-12-26T11:36:27;59.30;;;35.20;;
25509;SDS011;13413;52.336;21.200;2022-12-26T11:42:35;55.60;;;36.10;;
25509;SDS011;13413;52.336;21.200;2022-12-26T11:45:29;54.50;;;34.50;;
25509;SDS011;13413;52.336;21.200;2022-12-26T11:48:27;59.70;;;35.80;;
25509;SDS011;13413;52.336;21.200;2022-12-26T11:51:33;57.70;;;36.30;;
25509;SDS011;13413;52.336;21.200;2022-12-26T11:54:34;52.20;;;35.70;;
25509;SDS011;13413;52.336;21.200;2022-12-26T11:57:38;61.30;;;34.70;;
25509;SDS011;13413;52.336;21.200;2022-12-26T12:00:33;60.20;;;39.50;;
25509;SDS011;13413;52.336;21.200;2022-12-26T12:03:30;57.40;;;37.20;;
25509;SDS011;13413;52.336;21.200;2022-12-26T12:06:39;60.00;;;37.60;;
25509;SDS011;13413;52.336;21.200;2022-12-26T12:09:44;60.40;;;39.30;;
25509;SDS011;13413;52.336;21.200;2022-12-26T12:12:44;56.20;;;36.30;;
25509;SDS011;13413;52.336;21.200;2022-12-26T12:15:48;57.60;;;33.90;;
25509;SDS011;13413;52.336;21.200;2022-12-26T12:18:50;55.00;;;37.90;;
25509;SDS011;13413;52.336;21.200;2022-12-26T12:21:53;58.90;;;36.70;;
25509;SDS011;13413;52.336;21.200;2022-12-26T12:25:04;68.90;;;41.50;;
25509;SDS011;13413;52.336;21.200;2022-12-26T12:28:22;59.70;;;38.20;;
25509;SDS011;13413;52.336;21.200;2022-12-26T12:31:38;60.70;;;40.30;;
25509;SDS011;13413;52.336;21.200;2022-12-26T12:34:52;62.40;;;38.20;;
25509;SDS011;13413;52.336;21.200;2022-12-26T12:38:09;58.70;;;38.90;;
25509;SDS011;13413;52.336;21.200;2022-12-26T12:41:18;56.20;;;38.00;;
25509;SDS011;13413;52.336;21.200;2022-12-26T12:44:26;71.10;;;43.30;;
25509;SDS011;13413;52.336;21.200;2022-12-26T12:47:33;66.30;;;42.80;;
25509;SDS011;13413;52.336;21.200;2022-12-26T12:53:41;58.40;;;36.90;;
25509;SDS011;13413;52.336;21.200;2022-12-26T12:56:53;50.70;;;35.10;;
25509;SDS011;13413;52.336;21.200;2022-12-26T12:59:59;54.60;;;37.00;;
25509;SDS011;13413;52.336;21.200;2022-12-26T13:03:04;63.40;;;36.00;;
25509;SDS011;13413;52.336;21.200;2022-12-26T13:06:05;57.00;;;36.40;;
25509;SDS011;13413;52.336;21.200;2022-12-26T13:09:06;52.70;;;35.70;;
25509;SDS011;13413;52.336;21.200;2022-12-26T13:12:05;51.30;;;34.40;;
25509;SDS011;13413;52.336;21.200;2022-12-26T13:15:04;57.10;;;36.10;;
25509;SDS011;13413;52.336;21.200;2022-12-26T13:18:09;61.90;;;38.90;;
25509;SDS011;13413;52.336;21.200;2022-12-26T13:21:07;55.00;;;33.10;;
25509;SDS011;13413;52.336;21.200;2022-12-26T13:24:04;47.00;;;31.90;;
25509;SDS011;13413;52.336;21.200;2022-12-26T13:34:32;50.00;;;30.50;;
25509;SDS011;13413;52.336;21.200;2022-12-26T13:40:48;46.70;;;31.20;;
25509;SDS011;13413;52.336;21.200;2022-12-26T13:44:00;39.20;;;25.30;;
25509;SDS011;13413;52.336;21.200;2022-12-26T13:46:56;40.00;;;26.80;;
25509;SDS011;13413;52.336;21.200;2022-12-26T13:49:51;41.10;;;27.40;;
25509;SDS011;13413;52.336;21.200;2022-12-26T13:52:45;44.40;;;28.40;;
25509;SDS011;13413;52.336;21.200;2022-12-26T13:58:39;46.00;;;28.70;;
25509;SDS011;13413;52.336;21.200;2022-12-26T14:01:43;40.70;;;28.10;;
25509;SDS011;13413;52.336;21.200;2022-12-26T14:05:05;45.40;;;29.40;;
25509;SDS011;13413;52.336;21.200;2022-12-26T14:08:09;39.60;;;26.00;;
25509;SDS011;13413;52.336;21.200;2022-12-26T14:11:18;44.00;;;28.20;;
25509;SDS011;13413;52.336;21.200;2022-12-26T14:14:36;42.10;;;28.80;;
25509;SDS011;13413;52.336;21.200;2022-12-26T14:17:40;41.10;;;28.10;;
25509;SDS011;13413;52.336;21.200;2022-12-26T14:20:43;41.30;;;26.90;;
25509;SDS011;13413;52.336;21.200;2022-12-26T14:23:46;42.50;;;27.40;;
25509;SDS011;13413;52.336;21.200;2022-12-26T14:26:45;45.20;;;29.30;;
25509;SDS011;13413;52.336;21.200;2022-12-26T14:29:47;39.60;;;29.00;;
25509;SDS011;13413;52.336;21.200;2022-12-26T14:36:18;42.60;;;27.80;;
25509;SDS011;13413;52.336;21.200;2022-12-26T14:39:20;38.20;;;25.20;;
25509;SDS011;13413;52.336;21.200;2022-12-26T14:42:23;40.00;;;28.00;;
25509;SDS011;13413;52.336;21.200;2022-12-26T14:48:54;36.40;;;24.60;;
25509;SDS011;13413;52.336;21.200;2022-12-26T14:55:38;35.50;;;25.50;;
25509;SDS011;13413;52.336;21.200;2022-12-26T15:05:15;44.50;;;31.40;;
25509;SDS011;13413;52.336;21.200;2022-12-26T15:11:49;115.00;;;65.50;;
25509;SDS011;13413;52.336;21.200;2022-12-26T15:18:34;105.20;;;58.80;;
25509;SDS011;13413;52.336;21.200;2022-12-26T15:28:58;78.00;;;45.50;;
25509;SDS011;13413;52.336;21.200;2022-12-26T15:32:13;78.40;;;46.40;;
25509;SDS011;13413;52.336;21.200;2022-12-26T15:35:15;102.30;;;56.50;;
25509;SDS011;13413;52.336;21.200;2022-12-26T15:38:24;83.60;;;47.90;;
25509;SDS011;13413;52.336;21.200;2022-12-26T15:41:28;65.10;;;39.80;;
25509;SDS011;13413;52.336;21.200;2022-12-26T15:44:30;63.20;;;37.50;;
25509;SDS011;13413;52.336;21.200;2022-12-26T15:47:34;77.70;;;41.80;;
25509;SDS011;13413;52.336;21.200;2022-12-26T15:50:36;78.10;;;41.90;;
25509;SDS011;13413;52.336;21.200;2022-12-26T15:53:50;55.70;;;33.00;;
25509;SDS011;13413;52.336;21.200;2022-12-26T15:57:01;48.20;;;31.00;;
25509;SDS011;13413;52.336;21.200;2022-12-26T16:00:15;49.00;;;33.40;;
25509;SDS011;13413;52.336;21.200;2022-12-26T16:03:18;47.50;;;31.20;;
25509;SDS011;13413;52.336;21.200;2022-12-26T16:06:25;52.70;;;33.80;;
25509;SDS011;13413;52.336;21.200;2022-12-26T16:09:43;50.30;;;32.40;;
25509;SDS011;13413;52.336;21.200;2022-12-26T16:12:39;44.90;;;30.00;;
25509;SDS011;13413;52.336;21.200;2022-12-26T16:15:48;48.40;;;33.50;;
25509;SDS011;13413;52.336;21.200;2022-12-26T16:18:47;46.70;;;32.10;;
25509;SDS011;13413;52.336;21.200;2022-12-26T16:21:41;47.10;;;30.90;;
25509;SDS011;13413;52.336;21.200;2022-12-26T16:24:40;42.60;;;31.00;;
25509;SDS011;13413;52.336;21.200;2022-12-26T16:27:36;51.10;;;33.80;;
25509;SDS011;13413;52.336;21.200;2022-12-26T16:33:26;43.50;;;31.70;;
25509;SDS011;13413;52.336;21.200;2022-12-26T16:36:23;40.50;;;29.40;;
25509;SDS011;13413;52.336;21.200;2022-12-26T16:39:23;40.10;;;28.40;;
25509;SDS011;13413;52.336;21.200;2022-12-26T16:42:26;45.40;;;28.50;;
25509;SDS011;13413;52.336;21.200;2022-12-26T16:45:22;37.60;;;27.40;;
25509;SDS011;13413;52.336;21.200;2022-12-26T16:48:17;37.90;;;26.90;;
25509;SDS011;13413;52.336;21.200;2022-12-26T16:54:34;40.30;;;28.20;;
25509;SDS011;13413;52.336;21.200;2022-12-26T16:57:30;47.30;;;33.70;;
25509;SDS011;13413;52.336;21.200;2022-12-26T17:00:24;49.00;;;34.10;;
25509;SDS011;13413;52.336;21.200;2022-12-26T17:03:23;50.40;;;32.00;;
25509;SDS011;13413;52.336;21.200;2022-12-26T17:06:23;51.00;;;35.30;;
25509;SDS011;13413;52.336;21.200;2022-12-26T17:09:21;55.70;;;38.10;;
25509;SDS011;13413;52.336;21.200;2022-12-26T17:12:18;51.60;;;36.20;;
25509;SDS011;13413;52.336;21.200;2022-12-26T17:15:18;50.00;;;32.50;;
25509;SDS011;13413;52.336;21.200;2022-12-26T17:24:26;45.20;;;32.00;;
25509;SDS011;13413;52.336;21.200;2022-12-26T17:27:21;46.20;;;33.20;;
25509;SDS011;13413;52.336;21.200;2022-12-26T17:33:18;43.20;;;29.30;;
25509;SDS011;13413;52.336;21.200;2022-12-26T17:36:14;41.80;;;28.40;;
25509;SDS011;13413;52.336;21.200;2022-12-26T17:39:11;44.90;;;30.30;;
25509;SDS011;13413;52.336;21.200;2022-12-26T17:42:11;40.70;;;27.30;;
25509;SDS011;13413;52.336;21.200;2022-12-26T17:45:07;40.10;;;26.60;;
25509;SDS011;13413;52.336;21.200;2022-12-26T17:48:06;29.40;;;21.90;;
25509;SDS011;13413;52.336;21.200;2022-12-26T17:51:03;32.10;;;22.10;;
25509;SDS011;13413;52.336;21.200;2022-12-26T17:53:58;36.00;;;22.40;;
25509;SDS011;13413;52.336;21.200;2022-12-26T17:56:52;26.70;;;19.50;;
25509;SDS011;13413;52.336;21.200;2022-12-26T17:59:46;24.30;;;16.90;;
25509;SDS011;13413;52.336;21.200;2022-12-26T18:02:42;27.20;;;20.00;;
25509;SDS011;13413;52.336;21.200;2022-12-26T18:05:35;29.30;;;19.70;;
25509;SDS011;13413;52.336;21.200;2022-12-26T18:08:30;29.80;;;18.90;;
25509;SDS011;13413;52.336;21.200;2022-12-26T18:11:27;31.40;;;22.10;;
25509;SDS011;13413;52.336;21.200;2022-12-26T18:14:20;38.30;;;25.80;;
25509;SDS011;13413;52.336;21.200;2022-12-26T18:17:15;37.90;;;24.30;;
25509;SDS011;13413;52.336;21.200;2022-12-26T18:20:13;40.60;;;26.30;;
25509;SDS011;13413;52.336;21.200;2022-12-26T18:23:10;31.80;;;22.70;;
25509;SDS011;13413;52.336;21.200;2022-12-26T18:26:04;30.30;;;22.40;;
25509;SDS011;13413;52.336;21.200;2022-12-26T18:29:01;27.50;;;20.10;;
25509;SDS011;13413;52.336;21.200;2022-12-26T18:31:55;33.70;;;18.70;;
25509;SDS011;13413;52.336;21.200;2022-12-26T18:34:49;25.80;;;20.00;;
25509;SDS011;13413;52.336;21.200;2022-12-26T18:37:45;30.20;;;21.30;;
25509;SDS011;13413;52.336;21.200;2022-12-26T18:40:42;28.20;;;21.50;;
25509;SDS011;13413;52.336;21.200;2022-12-26T18:43:37;30.10;;;21.40;;
25509;SDS011;13413;52.336;21.200;2022-12-26T18:46:33;31.50;;;23.30;;
25509;SDS011;13413;52.336;21.200;2022-12-26T18:49:27;29.40;;;22.00;;
25509;SDS011;13413;52.336;21.200;2022-12-26T18:52:22;32.40;;;24.30;;
25509;SDS011;13413;52.336;21.200;2022-12-26T18:55:16;35.10;;;25.30;;
25509;SDS011;13413;52.336;21.200;2022-12-26T18:58:09;31.10;;;23.60;;
25509;SDS011;13413;52.336;21.200;2022-12-26T19:01:04;36.40;;;24.60;;
25509;SDS011;13413;52.336;21.200;2022-12-26T19:03:58;34.80;;;26.00;;
25509;SDS011;13413;52.336;21.200;2022-12-26T19:06:52;38.90;;;29.30;;
25509;SDS011;13413;52.336;21.200;2022-12-26T19:09:48;42.10;;;30.00;;
25509;SDS011;13413;52.336;21.200;2022-12-26T19:12:44;42.40;;;28.50;;
25509;SDS011;13413;52.336;21.200;2022-12-26T19:15:42;39.80;;;27.60;;
25509;SDS011;13413;52.336;21.200;2022-12-26T19:18:37;36.60;;;26.30;;
25509;SDS011;13413;52.336;21.200;2022-12-26T19:21:31;32.60;;;25.50;;